Time;durP1;ratioP1;P1;durP2;ratioP2;P2;SDS_P1;SDS_P2;PMS_P1;PMS_P2;Temp;Humidity;BMP_temperature;BMP_pressure;BME280_temperature;BME280_humidity;BME280_pressure;Samples;Min_cycle;Max_cycle;Signal;HPM_P1;HPM_P2
2022/06/10 00:02:06;;;;;;;7.03;2.40;;;14.00;97.10;;;;;;5058904;28;20119;-45
2022/06/10 00:04:34;;;;;;;10.48;2.85;;;13.90;97.10;;;;;;5062694;28;20119;-44
2022/06/10 00:07:01;;;;;;;10.93;2.90;;;13.90;97.60;;;;;;5062798;28;20044;-44
2022/06/10 00:09:28;;;;;;;9.55;2.75;;;13.90;97.70;;;;;;5057923;28;20557;-43
2022/06/10 00:11:55;;;;;;;13.38;3.28;;;13.80;97.80;;;;;;5055397;28;20547;-43
2022/06/10 00:14:23;;;;;;;10.07;2.80;;;13.80;97.80;;;;;;5054700;28;20098;-43
2022/06/10 00:16:50;;;;;;;10.63;2.45;;;13.80;97.70;;;;;;5069464;28;20135;-44
2022/06/10 00:19:17;;;;;;;14.48;3.63;;;13.80;97.60;;;;;;5080428;28;20057;-43
2022/06/10 00:21:43;;;;;;;13.20;3.17;;;13.70;98.00;;;;;;5065166;28;20049;-43
2022/06/10 00:24:10;;;;;;;17.83;3.80;;;13.80;98.10;;;;;;5053748;28;20113;-43
2022/06/10 00:26:37;;;;;;;12.93;3.63;;;13.70;98.30;;;;;;5060928;28;20049;-43
2022/06/10 00:29:04;;;;;;;10.57;3.45;;;13.70;98.40;;;;;;5055439;28;20146;-43
2022/06/10 00:31:32;;;;;;;10.80;3.08;;;13.60;98.60;;;;;;5057746;28;20080;-44
2022/06/10 00:33:59;;;;;;;7.07;2.25;;;13.60;98.30;;;;;;5059902;28;20052;-43
2022/06/10 00:36:25;;;;;;;9.00;2.67;;;13.60;98.10;;;;;;5070557;28;20087;-43
2022/06/10 00:38:52;;;;;;;6.40;2.45;;;13.60;98.10;;;;;;5054856;28;20049;-44
2022/06/10 00:41:19;;;;;;;11.68;3.13;;;13.50;98.20;;;;;;5062857;28;20052;-43
2022/06/10 00:43:46;;;;;;;10.45;2.80;;;13.50;98.30;;;;;;5055148;28;20053;-43
2022/06/10 00:46:21;;;;;;;9.85;2.55;;;13.50;98.60;;;;;;5066405;28;20080;-44
2022/06/10 00:48:51;;;;;;;10.25;3.00;;;13.40;98.40;;;;;;5065912;28;20432;-43
2022/06/10 00:51:20;;;;;;;12.95;3.38;;;13.40;98.60;;;;;;5060667;28;20122;-43
2022/06/10 00:53:47;;;;;;;10.43;3.22;;;13.40;98.70;;;;;;5054002;28;20052;-44
2022/06/10 00:56:15;;;;;;;10.73;2.88;;;13.30;98.60;;;;;;5067249;28;20071;-42
2022/06/10 00:58:46;;;;;;;14.18;3.35;;;13.30;98.90;;;;;;5074255;28;20080;-43
2022/06/10 01:01:13;;;;;;;13.07;3.83;;;13.20;99.20;;;;;;5069561;28;20056;-43
2022/06/10 01:03:41;;;;;;;11.20;3.38;;;13.20;99.30;;;;;;5077209;28;20424;-43
2022/06/10 01:06:09;;;;;;;15.50;3.83;;;13.20;99.40;;;;;;5066326;28;20098;-43
2022/06/10 01:08:36;;;;;;;18.50;4.03;;;13.20;99.70;;;;;;5068240;28;20080;-42
2022/06/10 01:11:10;;;;;;;10.65;2.80;;;13.20;99.80;;;;;;5059113;28;20159;-44
2022/06/10 01:13:41;;;;;;;10.75;2.85;;;13.20;99.90;;;;;;5054307;28;20144;-43
2022/06/10 01:16:12;;;;;;;10.45;3.10;;;13.10;99.90;;;;;;5064638;28;20084;-46
2022/06/10 01:18:46;;;;;;;14.73;3.25;;;13.10;99.90;;;;;;5061346;28;20127;-43
2022/06/10 01:21:31;;;;;;;14.48;2.90;;;13.10;99.90;;;;;;5060565;28;20131;-43
2022/06/10 01:24:11;;;;;;;10.90;2.83;;;13.00;99.90;;;;;;5067368;28;20091;-42
2022/06/10 01:29:52;;;;;;;10.93;2.97;;;13.00;99.90;;;;;;5063110;28;20428;-43
2022/06/10 01:32:22;;;;;;;13.38;3.30;;;12.90;99.90;;;;;;5059331;28;20048;-43
2022/06/10 01:34:51;;;;;;;13.52;2.38;;;12.90;99.90;;;;;;5056436;28;20048;-43
2022/06/10 01:37:20;;;;;;;12.77;3.00;;;12.90;99.90;;;;;;5060351;28;20135;-43
2022/06/10 01:39:49;;;;;;;12.10;2.88;;;12.90;99.90;;;;;;5053046;28;20048;-43
2022/06/10 01:42:20;;;;;;;9.32;2.65;;;12.90;99.90;;;;;;5058613;28;20140;-42
2022/06/10 01:44:53;;;;;;;12.80;3.10;;;12.80;99.90;;;;;;5062836;28;20132;-42
2022/06/10 01:47:23;;;;;;;8.57;2.40;;;12.80;99.90;;;;;;5065464;28;20072;-43
2022/06/10 01:49:52;;;;;;;11.32;2.85;;;12.80;99.90;;;;;;5061120;28;20098;-43
2022/06/10 01:52:23;;;;;;;14.48;4.93;;;12.80;99.90;;;;;;5052908;28;20102;-43
2022/06/10 01:54:53;;;;;;;10.05;2.42;;;12.80;99.90;;;;;;5056037;28;20132;-42
2022/06/10 01:57:23;;;;;;;12.55;2.60;;;12.80;99.90;;;;;;5072337;28;20127;-43
2022/06/10 01:59:53;;;;;;;9.18;1.98;;;12.80;99.90;;;;;;5070557;28;20439;-43
2022/06/10 02:02:23;;;;;;;6.13;2.20;;;12.80;99.90;;;;;;5059578;28;20500;-42
2022/06/10 02:04:52;;;;;;;8.38;2.70;;;12.80;99.90;;;;;;5067512;28;20120;-43
2022/06/10 02:07:20;;;;;;;10.32;2.80;;;12.70;99.90;;;;;;5062706;28;20467;-43
2022/06/10 02:09:48;;;;;;;11.60;2.80;;;12.70;99.90;;;;;;5054368;28;20455;-44
2022/06/10 02:12:19;;;;;;;6.45;2.80;;;12.70;99.90;;;;;;5052621;28;20049;-44
2022/06/10 02:14:50;;;;;;;9.15;3.15;;;12.70;99.90;;;;;;5053131;28;20109;-44
2022/06/10 02:17:16;;;;;;;10.30;2.77;;;12.70;99.90;;;;;;5058517;28;20045;-44
2022/06/10 02:19:47;;;;;;;7.72;2.42;;;12.70;99.90;;;;;;5051246;28;20517;-44
2022/06/10 02:22:15;;;;;;;12.00;2.67;;;12.60;99.90;;;;;;5052504;28;20128;-43
2022/06/10 02:24:43;;;;;;;10.45;3.22;;;12.60;99.90;;;;;;5051677;28;20056;-43
2022/06/10 02:27:12;;;;;;;12.80;3.00;;;12.60;99.90;;;;;;5058227;28;20094;-43
2022/06/10 02:29:41;;;;;;;12.35;2.70;;;12.50;99.90;;;;;;5057236;28;20057;-44
2022/06/10 02:32:09;;;;;;;8.07;2.75;;;12.50;99.90;;;;;;5067824;28;20084;-44
2022/06/10 02:34:36;;;;;;;7.68;2.40;;;12.50;99.90;;;;;;5050743;28;20072;-44
2022/06/10 02:37:07;;;;;;;8.15;2.03;;;12.50;99.90;;;;;;5051677;28;20126;-44
2022/06/10 02:39:35;;;;;;;;;;;12.50;99.90;;;;;;5051687;28;20103;-44
2022/06/10 02:42:06;;;;;;;10.82;2.83;;;12.40;99.50;;;;;;5055246;28;20407;-44
2022/06/10 02:44:36;;;;;;;10.45;2.58;;;12.40;99.90;;;;;;5050491;28;20075;-44
2022/06/10 02:47:08;;;;;;;8.30;2.13;;;12.40;99.90;;;;;;5060860;28;20055;-44
2022/06/10 02:49:35;;;;;;;10.15;2.70;;;12.30;99.90;;;;;;5070766;28;20057;-44
2022/06/10 02:52:02;;;;;;;7.30;1.98;;;12.40;99.90;;;;;;5058751;28;20056;-44
2022/06/10 02:54:32;;;;;;;8.82;2.58;;;12.40;99.90;;;;;;5051903;28;20095;-44
2022/06/10 02:56:59;;;;;;;9.70;2.53;;;12.40;99.90;;;;;;5063574;28;20127;-44
2022/06/10 03:02:24;;;;;;;10.70;2.50;;;12.30;99.90;;;;;;5063587;28;20488;-44
2022/06/10 03:05:04;;;;;;;10.52;2.72;;;12.30;99.90;;;;;;5076648;28;20044;-44
2022/06/10 03:07:43;;;;;;;10.70;2.35;;;12.30;99.90;;;;;;5071122;28;20106;-44
2022/06/10 03:10:17;;;;;;;8.00;2.30;;;12.20;99.90;;;;;;5062800;28;20085;-44
2022/06/10 03:12:47;;;;;;;10.45;2.83;;;12.20;99.90;;;;;;5057004;28;20183;-44
2022/06/10 03:15:25;;;;;;;7.03;2.40;;;12.20;99.90;;;;;;5068274;28;20052;-44
2022/06/10 03:17:56;;;;;;;8.57;2.85;;;12.20;99.90;;;;;;5059398;28;20133;-44
2022/06/10 03:20:25;;;;;;;13.00;3.13;;;12.20;99.90;;;;;;5056304;28;20134;-44
2022/06/10 03:23:04;;;;;;;9.63;2.63;;;12.20;99.90;;;;;;5055482;28;20056;-44
2022/06/10 03:25:35;;;;;;;12.02;2.85;;;12.20;99.90;;;;;;5063148;28;20126;-44
2022/06/10 03:28:05;;;;;;;10.65;3.17;;;12.10;99.90;;;;;;5067553;28;20071;-43
2022/06/10 03:30:34;;;;;;;10.20;2.53;;;12.10;99.90;;;;;;5065181;28;20423;-43
2022/06/10 03:33:04;;;;;;;13.77;2.55;;;12.10;99.90;;;;;;5065422;28;20072;-42
2022/06/10 03:35:34;;;;;;;9.70;2.90;;;12.10;99.90;;;;;;5055309;28;20416;-44
2022/06/10 03:38:02;;;;;;;11.82;2.97;;;12.10;99.90;;;;;;5057277;28;20055;-43
2022/06/10 03:40:29;;;;;;;14.45;3.53;;;12.10;99.90;;;;;;5073395;28;20132;-43
2022/06/10 03:42:59;;;;;;;16.67;3.33;;;12.10;99.90;;;;;;5064695;28;20504;-43
2022/06/10 03:45:27;;;;;;;10.80;3.65;;;12.00;99.90;;;;;;5063417;28;20106;-44
2022/06/10 03:47:54;;;;;;;12.35;2.90;;;12.10;99.90;;;;;;5057452;28;20076;-43
2022/06/10 03:50:23;;;;;;;11.02;2.63;;;12.10;99.90;;;;;;5053142;28;20504;-44
2022/06/10 03:52:49;;;;;;;15.73;3.33;;;12.10;99.90;;;;;;5059735;28;20056;-44
2022/06/10 03:55:18;;;;;;;10.07;2.50;;;12.10;99.90;;;;;;5059856;28;20147;-44
2022/06/10 03:57:45;;;;;;;19.05;3.85;;;12.10;99.90;;;;;;5063905;28;20048;-44
2022/06/10 04:00:16;;;;;;;13.18;3.60;;;12.10;99.90;;;;;;5059523;28;20069;-44
2022/06/10 04:02:43;;;;;;;20.53;3.50;;;12.10;99.90;;;;;;5066771;28;20088;-43
2022/06/10 04:05:10;;;;;;;16.00;3.58;;;12.10;99.90;;;;;;5070928;28;20091;-42
2022/06/10 04:07:37;;;;;;;16.15;3.80;;;12.10;99.90;;;;;;5068301;28;20140;-43
2022/06/10 04:10:05;;;;;;;16.83;3.03;;;12.10;99.90;;;;;;5072430;28;20064;-43
2022/06/10 04:12:32;;;;;;;14.63;3.65;;;12.20;99.90;;;;;;5058131;28;20049;-43
2022/06/10 04:14:59;;;;;;;15.45;4.35;;;12.20;99.90;;;;;;5059856;28;20051;-43
2022/06/10 04:17:27;;;;;;;19.30;4.40;;;12.20;99.90;;;;;;5058252;28;20456;-44
2022/06/10 04:19:54;;;;;;;13.90;3.60;;;12.30;99.90;;;;;;5055240;28;20477;-44
2022/06/10 04:22:20;;;;;;;16.15;4.03;;;12.30;99.90;;;;;;5060669;28;20076;-43
2022/06/10 04:24:47;;;;;;;14.15;3.85;;;12.30;99.90;;;;;;5053511;28;20080;-43
2022/06/10 04:27:14;;;;;;;17.00;4.32;;;12.30;99.90;;;;;;5053077;28;20084;-43
2022/06/10 04:29:41;;;;;;;18.20;4.50;;;12.40;99.90;;;;;;5052723;28;20088;-43
2022/06/10 04:32:09;;;;;;;18.75;4.32;;;12.40;99.90;;;;;;5053981;28;20072;-42
2022/06/10 04:34:37;;;;;;;20.85;4.20;;;12.40;99.90;;;;;;5061769;28;20123;-44
2022/06/10 04:37:04;;;;;;;18.92;4.38;;;12.50;99.90;;;;;;5064609;28;20119;-43
2022/06/10 04:39:31;;;;;;;15.05;4.13;;;12.50;99.90;;;;;;5054133;28;20497;-43
2022/06/10 04:41:58;;;;;;;16.40;4.30;;;12.50;99.90;;;;;;5056346;28;20140;-43
2022/06/10 04:44:25;;;;;;;13.27;4.07;;;12.60;99.90;;;;;;5055305;28;20464;-43
2022/06/10 04:46:51;;;;;;;16.80;4.32;;;12.60;99.90;;;;;;5064284;28;20138;-43
2022/06/10 04:49:18;;;;;;;23.25;4.60;;;12.70;99.90;;;;;;5053852;28;20049;-44
2022/06/10 04:51:46;;;;;;;12.15;4.20;;;12.70;99.90;;;;;;5080407;28;20417;-44
2022/06/10 04:54:13;;;;;;;16.88;4.30;;;12.80;99.90;;;;;;5059716;28;20084;-44
2022/06/10 04:56:40;;;;;;;13.23;4.60;;;12.80;99.90;;;;;;5062565;28;20088;-43
2022/06/10 04:59:07;;;;;;;15.23;4.88;;;12.90;99.90;;;;;;5056061;28;20076;-44
2022/06/10 05:01:33;;;;;;;14.45;3.90;;;13.00;99.90;;;;;;5061205;28;20077;-43
2022/06/10 05:04:00;;;;;;;16.30;4.50;;;13.10;99.90;;;;;;5060240;28;20123;-43
2022/06/10 05:06:27;;;;;;;14.23;4.57;;;13.20;99.90;;;;;;5062950;28;20090;-44
2022/06/10 05:08:56;;;;;;;16.10;5.03;;;13.30;99.90;;;;;;5063264;28;20089;-44
2022/06/10 05:11:23;;;;;;;14.23;4.18;;;13.40;99.90;;;;;;5053594;28;20049;-44
2022/06/10 05:13:49;;;;;;;14.90;4.22;;;13.50;99.90;;;;;;5068984;28;20044;-44
2022/06/10 05:16:16;;;;;;;18.58;4.88;;;13.70;99.90;;;;;;5061467;28;20072;-44
2022/06/10 05:18:43;;;;;;;14.23;4.22;;;13.90;99.90;;;;;;5072420;28;20076;-44
2022/06/10 05:21:10;;;;;;;14.07;4.47;;;14.10;99.90;;;;;;5061781;28;20057;-44
2022/06/10 05:23:37;;;;;;;15.05;4.80;;;14.20;99.90;;;;;;5053906;28;20044;-44
2022/06/10 05:26:05;;;;;;;15.68;3.72;;;14.40;99.90;;;;;;5062353;28;20167;-44
2022/06/10 05:28:31;;;;;;;17.67;4.22;;;14.40;99.90;;;;;;5067683;28;20132;-44
2022/06/10 05:30:58;;;;;;;15.07;4.32;;;14.50;99.90;;;;;;5057551;28;20066;-44
2022/06/10 05:34:44;;;;;;;14.10;4.10;;;14.60;99.90;;;;;;5064578;28;20489;-44
2022/06/10 05:36:12;;;;;;;18.98;3.63;;;14.60;99.90;;;;;;5059607;28;20056;-45
2022/06/10 05:38:39;;;;;;;18.75;4.38;;;14.70;99.90;;;;;;5064395;28;20053;-44
2022/06/10 05:43:47;;;;;;;21.23;4.63;;;14.70;99.90;;;;;;5066834;28;20527;-44
2022/06/10 05:46:14;;;;;;;13.15;3.92;;;14.80;99.90;;;;;;5063741;28;20186;-44
2022/06/10 05:48:42;;;;;;;17.42;3.75;;;14.80;99.90;;;;;;5073501;28;20084;-44
2022/06/10 05:51:09;;;;;;;17.13;4.47;;;14.80;99.90;;;;;;5073832;28;20496;-44
2022/06/10 05:53:35;;;;;;;13.68;3.53;;;14.80;99.90;;;;;;5072231;28;20102;-43
2022/06/10 05:56:02;;;;;;;11.93;3.53;;;14.90;99.90;;;;;;5065801;28;20084;-42
2022/06/10 05:58:31;;;;;;;20.20;4.30;;;14.90;99.90;;;;;;5052000;28;20465;-43
2022/06/10 06:00:58;;;;;;;17.27;3.90;;;15.00;99.90;;;;;;5064261;28;20041;-44
2022/06/10 06:03:24;;;;;;;13.00;4.07;;;15.00;99.90;;;;;;5068739;28;20087;-43
2022/06/10 06:05:51;;;;;;;11.45;4.07;;;15.00;99.90;;;;;;5072182;28;20123;-43
2022/06/10 06:08:18;;;;;;;14.50;3.90;;;15.10;99.90;;;;;;5074765;28;20088;-43
2022/06/10 06:10:45;;;;;;;11.68;4.38;;;15.10;99.90;;;;;;5068062;28;20400;-43
2022/06/10 06:13:11;;;;;;;13.32;4.63;;;15.20;99.90;;;;;;5081210;28;20461;-44
2022/06/10 06:15:40;;;;;;;14.48;3.88;;;15.10;99.90;;;;;;5071914;28;20126;-44
2022/06/10 06:18:07;;;;;;;20.92;4.78;;;15.20;99.90;;;;;;5054178;28;20049;-44
2022/06/10 06:20:34;;;;;;;16.75;4.43;;;15.30;99.90;;;;;;5054658;28;20100;-44
2022/06/10 06:23:01;;;;;;;16.35;4.55;;;15.30;99.90;;;;;;5056541;28;20091;-45
2022/06/10 06:25:29;;;;;;;15.07;4.93;;;15.30;99.90;;;;;;5049968;28;20132;-44
2022/06/10 06:27:56;;;;;;;13.73;5.22;;;15.40;99.90;;;;;;5069394;28;20062;-43
2022/06/10 06:30:26;;;;;;;23.30;5.13;;;15.40;99.90;;;;;;5072471;28;20423;-43
2022/06/10 06:32:54;;;;;;;20.50;4.75;;;15.50;99.90;;;;;;5051008;28;20045;-44
2022/06/10 06:35:21;;;;;;;20.70;4.65;;;15.50;99.90;;;;;;5050649;28;20068;-45
2022/06/10 06:37:48;;;;;;;19.13;4.80;;;15.60;99.90;;;;;;5049481;28;20053;-43
2022/06/10 06:40:15;;;;;;;15.25;5.15;;;15.60;99.90;;;;;;5050395;28;20045;-43
2022/06/10 06:42:42;;;;;;;18.90;5.68;;;15.70;99.90;;;;;;5051098;28;20087;-44
2022/06/10 06:45:10;;;;;;;15.65;4.78;;;15.80;99.90;;;;;;5051376;28;20057;-42
2022/06/10 06:47:37;;;;;;;15.23;5.28;;;15.80;99.90;;;;;;5051844;28;20132;-43
2022/06/10 06:50:06;;;;;;;21.40;5.70;;;15.80;99.90;;;;;;5051472;28;20095;-44
2022/06/10 06:52:33;;;;;;;16.55;4.97;;;15.80;99.90;;;;;;5050170;28;20079;-44
2022/06/10 06:55:00;;;;;;;14.75;5.13;;;15.80;99.90;;;;;;5050171;28;20111;-43
2022/06/10 06:57:27;;;;;;;19.85;5.90;;;15.80;99.90;;;;;;5051545;28;20447;-46
2022/06/10 06:59:54;;;;;;;16.52;5.38;;;15.90;99.90;;;;;;5050577;28;20131;-44
2022/06/10 07:02:20;;;;;;;26.08;6.35;;;15.90;99.90;;;;;;5058999;28;20064;-43
2022/06/10 07:04:48;;;;;;;16.45;5.30;;;16.00;99.90;;;;;;5062074;28;20068;-43
2022/06/10 07:07:17;;;;;;;22.58;6.15;;;16.00;99.90;;;;;;5061844;28;20057;-44
2022/06/10 07:09:44;;;;;;;16.48;5.25;;;16.10;99.90;;;;;;5051081;28;20060;-44
2022/06/10 07:12:11;;;;;;;20.35;5.47;;;16.20;99.90;;;;;;5051225;28;20107;-44
2022/06/10 07:14:38;;;;;;;12.85;5.22;;;16.20;99.90;;;;;;5051136;28;20049;-44
2022/06/10 07:17:05;;;;;;;16.85;5.32;;;16.30;99.90;;;;;;5055048;28;20152;-44
2022/06/10 07:19:32;;;;;;;14.85;5.38;;;16.30;99.90;;;;;;5053871;28;20053;-43
2022/06/10 07:21:59;;;;;;;12.77;5.20;;;16.40;99.90;;;;;;5065482;28;20061;-44
2022/06/10 07:24:27;;;;;;;13.60;4.75;;;16.50;99.90;;;;;;5069638;28;20051;-43
2022/06/10 07:26:54;;;;;;;15.95;4.60;;;16.50;99.90;;;;;;5069448;28;20052;-44
2022/06/10 07:29:21;;;;;;;18.17;5.35;;;16.60;99.90;;;;;;5070091;28;20135;-44
2022/06/10 07:31:47;;;;;;;15.20;4.78;;;16.60;99.90;;;;;;5065758;28;20072;-44
2022/06/10 07:34:16;;;;;;;13.50;4.97;;;16.70;99.90;;;;;;5069124;28;20105;-44
2022/06/10 07:36:42;;;;;;;13.38;4.93;;;16.70;99.90;;;;;;5070773;28;20048;-43
2022/06/10 07:39:09;;;;;;;13.32;4.63;;;16.90;99.90;;;;;;5069220;28;20308;-43
2022/06/10 07:44:23;;;;;;;17.48;5.38;;;17.10;99.90;;;;;;5069252;28;20072;-43
2022/06/10 07:46:50;;;;;;;14.32;5.00;;;17.10;99.90;;;;;;5072275;28;20105;-44
2022/06/10 07:49:17;;;;;;;14.85;5.18;;;17.20;99.90;;;;;;5054599;28;20076;-44
2022/06/10 07:51:43;;;;;;;18.75;5.40;;;17.30;99.90;;;;;;5054323;28;20480;-44
2022/06/10 07:54:10;;;;;;;18.38;5.15;;;17.30;99.90;;;;;;5054263;28;20102;-44
2022/06/10 07:56:39;;;;;;;14.27;5.20;;;17.30;99.90;;;;;;5069462;28;20135;-44
2022/06/10 07:59:06;;;;;;;14.90;4.78;;;17.50;99.90;;;;;;5071416;28;20136;-44
2022/06/10 08:01:33;;;;;;;14.00;5.20;;;17.50;99.90;;;;;;5073292;28;20597;-44
2022/06/10 08:04:00;;;;;;;16.67;5.00;;;17.60;99.90;;;;;;5073312;28;20496;-44
2022/06/10 08:06:27;;;;;;;18.63;5.25;;;17.50;99.90;;;;;;5071602;28;20097;-44
2022/06/10 08:08:54;;;;;;;16.00;4.85;;;17.50;99.90;;;;;;5064589;28;20087;-43
2022/06/10 08:11:21;;;;;;;16.10;4.40;;;17.50;99.90;;;;;;5072995;28;20114;-44
2022/06/10 08:13:49;;;;;;;13.02;4.60;;;17.60;99.90;;;;;;5058897;28;20464;-44
2022/06/10 08:16:18;;;;;;;14.93;4.32;;;17.70;99.90;;;;;;5053945;28;20140;-44
2022/06/10 08:18:45;;;;;;;16.30;4.53;;;17.80;99.90;;;;;;5054520;28;20049;-44
2022/06/10 08:23:56;;;;;;;20.00;4.53;;;17.90;99.90;;;;;;5053052;28;20488;-44
2022/06/10 08:26:25;;;;;;;8.73;3.75;;;17.90;99.90;;;;;;5056272;28;20053;-44
2022/06/10 08:28:54;;;;;;;16.17;4.88;;;18.00;99.90;;;;;;5070620;28;20056;-44
2022/06/10 08:31:21;;;;;;;15.93;4.57;;;18.00;99.90;;;;;;5073517;28;20048;-43
2022/06/10 08:33:48;;;;;;;13.98;4.43;;;18.00;99.90;;;;;;5072535;28;20400;-44
2022/06/10 08:36:15;;;;;;;13.13;3.97;;;18.10;99.90;;;;;;5061023;28;20678;-43
2022/06/10 08:38:42;;;;;;;14.40;4.00;;;18.10;99.90;;;;;;5052847;28;20077;-44
2022/06/10 08:41:14;;;;;;;12.73;3.83;;;18.10;99.90;;;;;;5053918;28;20150;-44
2022/06/10 08:43:46;;;;;;;12.20;3.42;;;18.20;99.90;;;;;;5052594;28;20126;-44
2022/06/10 08:46:20;;;;;;;13.75;3.78;;;18.30;99.90;;;;;;5052503;28;20076;-43
2022/06/10 08:49:10;;;;;;;12.15;3.38;;;18.40;99.90;;;;;;5062347;28;20504;-44
2022/06/10 08:51:40;;;;;;;15.30;3.65;;;18.50;99.90;;;;;;5072373;28;20087;-43
2022/06/10 08:54:13;;;;;;;18.13;4.47;;;18.50;99.90;;;;;;5071447;28;20215;-43
2022/06/10 08:56:41;;;;;;;12.07;3.10;;;18.50;99.90;;;;;;5069297;28;20544;-43
2022/06/10 08:59:13;;;;;;;11.90;3.50;;;18.40;99.90;;;;;;5072220;28;20509;-43
2022/06/10 09:01:46;;;;;;;13.40;3.35;;;18.50;99.90;;;;;;5071831;28;20114;-44
2022/06/10 09:04:36;;;;;;;9.55;3.25;;;18.60;99.90;;;;;;5071779;28;20084;-44
2022/06/10 09:07:06;;;;;;;12.48;3.63;;;18.60;99.90;;;;;;5056536;28;20528;-43
2022/06/10 09:09:33;;;;;;;15.88;3.72;;;18.60;99.90;;;;;;5063205;28;20098;-44
2022/06/10 09:12:03;;;;;;;17.48;3.65;;;18.60;99.90;;;;;;5070714;28;20051;-43
2022/06/10 09:14:29;;;;;;;14.57;3.67;;;18.70;99.90;;;;;;5071924;28;20105;-43
2022/06/10 09:16:59;;;;;;;15.68;3.95;;;18.70;99.90;;;;;;5072785;28;20439;-43
2022/06/10 09:19:30;;;;;;;15.23;4.43;;;18.70;99.90;;;;;;5072773;28;20040;-43
2022/06/10 09:22:02;;;;;;;12.23;4.10;;;18.60;99.90;;;;;;5072467;28;20055;-44
2022/06/10 09:24:31;;;;;;;12.65;4.10;;;18.60;99.90;;;;;;5053560;28;20048;-44
2022/06/10 09:27:14;;;;;;;12.23;3.75;;;18.60;99.90;;;;;;5069769;28;20049;-44
2022/06/10 09:29:41;;;;;;;15.85;3.95;;;18.50;99.90;;;;;;5071169;28;20097;-43
2022/06/10 09:32:11;;;;;;;14.32;3.67;;;18.50;99.90;;;;;;5070836;28;20076;-44
2022/06/10 09:34:48;;;;;;;11.95;3.60;;;18.60;99.90;;;;;;5072494;28;20139;-43
2022/06/10 09:37:18;;;;;;;10.18;3.58;;;18.60;99.90;;;;;;5069737;28;20079;-43
2022/06/10 09:42:39;;;;;;;11.13;3.33;;;18.70;99.90;;;;;;5052445;28;20509;-44
2022/06/10 09:45:09;;;;;;;15.52;4.03;;;18.70;99.90;;;;;;5064780;28;20052;-44
2022/06/10 09:47:55;;;;;;;14.50;3.83;;;18.70;99.90;;;;;;5070460;28;20634;-44
2022/06/10 09:50:25;;;;;;;13.98;4.10;;;18.70;99.90;;;;;;5070539;28;20052;-44
2022/06/10 09:53:01;;;;;;;7.00;3.20;;;18.70;99.90;;;;;;5061417;28;20472;-43
2022/06/10 09:55:34;;;;;;;13.27;3.47;;;18.80;99.90;;;;;;5050778;28;20064;-44
2022/06/10 09:58:21;;;;;;;11.93;3.83;;;18.90;99.90;;;;;;5052211;28;20041;-44
2022/06/10 10:00:52;;;;;;;10.27;3.45;;;19.00;99.90;;;;;;5050827;28;20131;-44
2022/06/10 10:03:28;;;;;;;;;;;19.20;99.90;;;;;;5052543;28;20561;-44
2022/06/10 10:06:07;;;;;;;16.02;3.45;;;19.40;99.90;;;;;;5070145;28;19920;-43
2022/06/10 10:08:37;;;;;;;13.23;3.72;;;19.60;99.90;;;;;;5071775;28;20049;-44
2022/06/10 10:11:11;;;;;;;19.30;3.88;;;19.70;99.90;;;;;;5060770;28;20098;-43
2022/06/10 10:13:51;;;;;;;15.02;3.45;;;19.80;99.90;;;;;;5050706;28;20044;-43
2022/06/10 10:16:25;;;;;;;12.05;3.25;;;19.90;99.90;;;;;;5051260;28;20053;-44
2022/06/10 10:19:04;;;;;;;13.35;3.60;;;20.00;99.90;;;;;;5050965;28;20106;-43
2022/06/10 10:21:35;;;;;;;13.57;3.10;;;20.00;99.90;;;;;;5063078;28;20048;-44
2022/06/10 10:24:02;;;;;;;18.30;3.83;;;20.00;99.90;;;;;;5069380;28;20098;-43
2022/06/10 10:26:30;;;;;;;14.98;3.20;;;20.00;99.90;;;;;;5068972;28;20109;-44
2022/06/10 10:29:00;;;;;;;11.63;3.70;;;20.00;99.90;;;;;;5070953;28;20094;-43
2022/06/10 10:31:27;;;;;;;18.55;3.95;;;20.20;99.90;;;;;;5072465;28;20401;-44
2022/06/10 10:33:56;;;;;;;17.90;3.58;;;20.40;99.90;;;;;;5062496;28;20120;-43
2022/06/10 10:36:25;;;;;;;12.27;3.45;;;20.50;99.90;;;;;;5052147;28;20448;-43
2022/06/10 10:38:52;;;;;;;18.63;3.63;;;20.70;99.90;;;;;;5055468;28;20045;-43
2022/06/10 10:41:26;;;;;;;16.30;3.75;;;20.80;99.80;;;;;;5071555;28;20068;-43
2022/06/10 10:43:55;;;;;;;13.05;3.20;;;20.80;99.90;;;;;;5072981;28;20040;-44
2022/06/10 10:46:40;;;;;;;16.83;3.78;;;20.90;99.30;;;;;;5091083;28;20117;-43
2022/06/10 10:49:22;;;;;;;18.67;3.60;;;20.90;98.80;;;;;;5060474;28;20083;-44
2022/06/10 10:51:50;;;;;;;10.90;2.92;;;20.90;98.70;;;;;;5071479;28;20571;-44
2022/06/10 10:54:20;;;;;;;11.82;3.05;;;20.90;98.90;;;;;;5072209;28;20071;-44
2022/06/10 10:56:47;;;;;;;13.95;4.07;;;20.90;98.80;;;;;;5070921;28;20076;-44
2022/06/10 10:59:29;;;;;;;10.15;3.30;;;20.90;98.90;;;;;;5071395;28;20094;-44
2022/06/10 11:01:55;;;;;;;;;;;20.90;99.20;;;;;;5056666;28;20489;-44
2022/06/10 11:04:28;;;;;;;12.93;3.03;;;20.90;98.90;;;;;;5059880;28;19921;-44
2022/06/10 11:07:00;;;;;;;11.25;2.90;;;20.90;99.00;;;;;;5071242;28;20055;-44
2022/06/10 11:09:26;;;;;;;;;;;21.00;99.10;;;;;;5054676;28;20297;-43
2022/06/10 11:11:55;;;;;;;14.18;3.00;;;21.00;99.10;;;;;;5051420;28;19925;-43
2022/06/10 11:14:24;;;;;;;17.15;3.67;;;21.00;99.00;;;;;;5052161;28;20049;-44
2022/06/10 11:17:15;;;;;;;11.40;3.30;;;21.10;98.80;;;;;;5051634;28;20053;-43
2022/06/10 11:19:48;;;;;;;13.65;3.50;;;21.30;98.50;;;;;;5052518;28;20049;-43
2022/06/10 11:22:34;;;;;;;12.48;3.45;;;21.50;98.10;;;;;;5056131;28;20049;-44
2022/06/10 11:25:26;;;;;;;11.23;3.30;;;21.80;97.60;;;;;;5056021;28;20056;-43
2022/06/10 11:27:59;;;;;;;13.60;3.85;;;22.00;97.30;;;;;;5058203;28;20049;-44
2022/06/10 11:30:34;;;;;;;10.95;3.03;;;22.30;96.30;;;;;;5074936;28;20041;-44
2022/06/10 11:33:02;;;;;;;12.02;3.45;;;22.30;95.40;;;;;;5065417;28;20067;-44
2022/06/10 11:35:32;;;;;;;11.25;3.33;;;22.30;95.60;;;;;;5062897;28;20087;-44
2022/06/10 11:38:01;;;;;;;13.43;2.95;;;22.30;95.50;;;;;;5062212;28;20055;-43
2022/06/10 11:40:29;;;;;;;11.30;3.35;;;22.30;95.20;;;;;;5055304;28;20049;-44
2022/06/10 11:43:00;;;;;;;13.30;3.42;;;22.20;95.30;;;;;;5055710;28;20095;-44
2022/06/10 11:45:28;;;;;;;;;;;22.20;95.30;;;;;;5055045;28;20059;-43
2022/06/10 11:47:56;;;;;;;10.52;2.92;;;22.10;95.60;;;;;;5055473;28;19920;-43
2022/06/10 11:50:26;;;;;;;9.40;2.72;;;22.10;96.10;;;;;;5055605;28;20123;-44
2022/06/10 11:52:56;;;;;;;9.52;3.15;;;22.20;96.00;;;;;;5055477;28;20045;-44
2022/06/10 11:55:26;;;;;;;12.35;3.10;;;22.30;95.50;;;;;;5054136;28;20076;-43
2022/06/10 12:00:44;;;;;;;10.80;2.58;;;22.50;95.00;;;;;;5054465;28;20079;-45
2022/06/10 12:03:15;;;;;;;12.02;3.10;;;22.60;94.80;;;;;;5055138;28;20094;-44
2022/06/10 12:05:50;;;;;;;14.27;3.10;;;22.60;94.40;;;;;;5071036;28;20145;-44
2022/06/10 12:08:24;;;;;;;12.32;3.10;;;22.60;94.10;;;;;;5074070;28;20397;-44
2022/06/10 12:10:54;;;;;;;17.42;3.20;;;22.60;94.70;;;;;;5075279;28;20052;-44
2022/06/10 12:13:21;;;;;;;10.55;2.67;;;22.60;94.70;;;;;;5074028;28;20048;-44
2022/06/10 12:15:50;;;;;;;14.35;3.15;;;22.70;94.50;;;;;;5073806;28;20049;-44
2022/06/10 12:18:17;;;;;;;10.52;3.20;;;22.90;94.70;;;;;;5073763;28;20056;-44
2022/06/10 12:20:46;;;;;;;12.55;2.90;;;23.00;94.70;;;;;;5075323;28;20049;-45
2022/06/10 12:23:14;;;;;;;8.18;2.28;;;23.10;94.10;;;;;;5062322;28;20049;-44
2022/06/10 12:26:07;;;;;;;12.70;3.33;;;23.20;93.90;;;;;;5069985;28;20052;-46
2022/06/10 12:28:38;;;;;;;11.82;2.70;;;23.50;94.00;;;;;;5070513;28;20064;-44
2022/06/10 12:31:13;;;;;;;10.75;2.90;;;23.50;93.30;;;;;;5059818;28;20468;-44
2022/06/10 12:33:43;;;;;;;13.55;2.63;;;23.60;93.00;;;;;;5073241;28;20459;-44
2022/06/10 12:36:11;;;;;;;8.85;2.30;;;23.70;92.50;;;;;;5094760;28;20055;-45
2022/06/10 12:38:38;;;;;;;9.98;2.72;;;23.70;92.40;;;;;;5092925;28;20147;-44
2022/06/10 12:41:08;;;;;;;10.23;2.63;;;23.70;92.40;;;;;;5061516;28;20110;-44
2022/06/10 12:43:36;;;;;;;11.82;2.92;;;23.70;92.30;;;;;;5053218;28;20124;-44
2022/06/10 12:46:04;;;;;;;9.93;2.85;;;23.70;92.30;;;;;;5071315;28;20494;-44
2022/06/10 12:48:32;;;;;;;11.60;2.58;;;23.80;91.90;;;;;;5064575;28;20092;-43
2022/06/10 12:51:02;;;;;;;10.80;2.60;;;23.90;91.00;;;;;;5053325;28;20049;-43
2022/06/10 12:53:46;;;;;;;13.80;2.33;;;23.90;91.00;;;;;;5054103;28;20049;-43
2022/06/10 12:56:26;;;;;;;7.53;2.35;;;23.90;90.70;;;;;;5064969;28;20109;-43
2022/06/10 12:59:11;;;;;;;9.60;2.33;;;23.90;90.90;;;;;;5073248;28;20199;-43
2022/06/10 13:01:42;;;;;;;11.23;2.88;;;23.80;90.30;;;;;;5073241;28;20122;-43
2022/06/10 13:04:12;;;;;;;7.40;2.40;;;23.70;90.80;;;;;;5066178;28;20469;-44
2022/06/10 13:06:57;;;;;;;10.10;2.95;;;23.60;90.70;;;;;;5064902;28;20045;-46
2022/06/10 13:09:31;;;;;;;11.52;2.55;;;23.50;91.00;;;;;;5071875;28;20052;-45
2022/06/10 13:12:01;;;;;;;8.52;2.63;;;23.40;91.20;;;;;;5074057;28;20057;-45
2022/06/10 13:14:47;;;;;;;8.63;2.45;;;23.40;91.30;;;;;;5066973;28;20118;-42